Friday, August 28, 2015, 1:06 PM EDT

KJYO, Leesburg / Godfrey

Location: Leesburg, VA, United States Lat: 39.083
Local Time: 1:06 PM EDT (17:06 GMT) Lon: -77.567
Time Zone: US/Eastern Elev: 390 ft

Show me the last for .
Show Decoded

2015-08-28 12:35 METAR KJYO 281635Z AUTO 22004KT 10SM CLR 27/17 A3022 RMK AO2 =
2015-08-28 12:15 METAR KJYO 281615Z AUTO 25006KT 10SM CLR 26/16 A3023 RMK AO2 =
2015-08-28 11:55 METAR KJYO 281555Z AUTO 20006KT 10SM VCTS CLR 26/16 A3023 RMK AO2 =
2015-08-28 11:35 METAR KJYO 281535Z AUTO 26003KT 10SM CLR 26/16 A3023 RMK AO2 =
2015-08-28 11:15 METAR KJYO 281515Z AUTO 31005KT 10SM CLR 26/16 A3023 RMK AO2 =
2015-08-28 10:35 METAR KJYO 281435Z AUTO 00000KT 10SM CLR 24/16 A3024 RMK AO2 =
2015-08-28 10:15 METAR KJYO 281415Z AUTO 00000KT 10SM CLR 23/16 A3024 RMK AO2 =
2015-08-28 09:55 METAR KJYO 281355Z AUTO 00000KT 10SM CLR 23/16 A3024 RMK AO2 =
2015-08-28 09:35 METAR KJYO 281335Z AUTO 00000KT 10SM SCT075 22/16 A3023 RMK AO2 =
2015-08-28 09:15 METAR KJYO 281315Z AUTO 00000KT 10SM SCT075 21/16 A3023 RMK AO2 =
2015-08-28 08:55 METAR KJYO 281255Z AUTO 00000KT 10SM CLR 20/16 A3023 RMK AO2 =
2015-08-28 08:35 METAR KJYO 281235Z AUTO 00000KT 10SM SCT070 20/16 A3022 RMK AO2 =
2015-08-28 08:15 METAR KJYO 281215Z AUTO 00000KT 10SM SCT070 18/17 A3022 RMK AO2 =
2015-08-28 07:55 METAR KJYO 281155Z AUTO 00000KT 10SM SCT070 17/17 A3021 RMK AO2 =
2015-08-28 07:35 METAR KJYO 281135Z AUTO 00000KT 10SM BKN070 16/16 A3021 RMK AO2 =
2015-08-28 07:15 METAR KJYO 281115Z AUTO 00000KT 10SM BKN070 15/15 A3021 RMK AO2 =
2015-08-28 06:55 METAR KJYO 281055Z AUTO 00000KT 10SM SCT070 15/15 A3020 RMK AO2 =
2015-08-28 06:35 METAR KJYO 281035Z AUTO 00000KT 10SM BKN060 15/15 A3019 RMK AO2 =
2015-08-28 06:15 METAR KJYO 281015Z AUTO 00000KT 10SM BKN060 15/15 A3019 RMK AO2 =
2015-08-28 05:55 METAR KJYO 280955Z AUTO 00000KT 10SM CLR 15/15 A3018 RMK AO2 =
2015-08-28 05:35 METAR KJYO 280935Z AUTO 00000KT 10SM BKN060 16/16 A3018 RMK AO2 =
2015-08-28 05:15 METAR KJYO 280915Z AUTO 00000KT 10SM BKN060 15/15 A3018 RMK AO2 =
2015-08-28 04:35 METAR KJYO 280835Z AUTO 00000KT 10SM OVC070 16/16 A3017 RMK AO2 =
2015-08-28 03:55 METAR KJYO 280755Z AUTO 00000KT 10SM CLR 15/15 A3018 RMK AO2 =
2015-08-28 03:35 METAR KJYO 280735Z AUTO 00000KT 10SM CLR 16/16 A3018 RMK AO2 =
2015-08-28 03:15 METAR KJYO 280715Z AUTO 00000KT 10SM SCT070 16/15 A3018 RMK AO2 =
2015-08-28 02:55 METAR KJYO 280655Z AUTO 00000KT 10SM OVC070 17/16 A3018 RMK AO2 =
2015-08-28 02:35 METAR KJYO 280635Z AUTO 00000KT 10SM OVC070 16/16 A3018 RMK AO2 =
2015-08-28 02:15 METAR KJYO 280615Z AUTO 00000KT 10SM OVC070 16/16 A3018 RMK AO2 =
2015-08-28 01:55 METAR KJYO 280555Z AUTO 00000KT 10SM BKN070 16/16 A3019 RMK AO2 =
2015-08-28 01:35 METAR KJYO 280535Z AUTO 00000KT 10SM CLR 16/16 A3018 RMK AO2 =
2015-08-28 01:15 METAR KJYO 280515Z AUTO 00000KT 10SM CLR 16/16 A3019 RMK AO2 =
2015-08-28 00:55 METAR KJYO 280455Z AUTO 21004KT 10SM CLR 16/16 A3019 RMK AO2 =
2015-08-28 00:35 METAR KJYO 280435Z AUTO 21008KT 10SM CLR 16/16 A3018 RMK AO2 =
2015-08-28 00:15 METAR KJYO 280415Z AUTO 00000KT 10SM CLR 16/16 A3018 RMK AO2 =
2015-08-27 23:55 METAR KJYO 280355Z AUTO 00000KT 10SM CLR 17/16 A3018 RMK AO2 =
2015-08-27 23:35 METAR KJYO 280335Z AUTO 00000KT 10SM CLR 17/16 A3018 RMK AO2 =
2015-08-27 23:15 METAR KJYO 280315Z AUTO 00000KT 10SM SCT070 18/16 A3017 RMK AO2 =
2015-08-27 22:55 METAR KJYO 280255Z AUTO 00000KT 10SM BKN070 18/17 A3018 RMK AO2 =
2015-08-27 22:35 METAR KJYO 280235Z AUTO 00000KT 10SM SCT070 17/16 A3018 RMK AO2 =
2015-08-27 22:15 METAR KJYO 280215Z AUTO 00000KT 10SM BKN070 19/16 A3017 RMK AO2 =
2015-08-27 21:55 METAR KJYO 280155Z AUTO 00000KT 10SM OVC070 20/16 A3017 RMK AO2 =
2015-08-27 21:35 METAR KJYO 280135Z AUTO 00000KT 10SM OVC070 19/16 A3016 RMK AO2 =
2015-08-27 21:15 METAR KJYO 280115Z AUTO 00000KT 10SM BKN070 19/16 A3015 RMK AO2 =
2015-08-27 20:55 METAR KJYO 280055Z AUTO 00000KT 10SM CLR 20/16 A3015 RMK AO2 =
2015-08-27 20:35 METAR KJYO 280035Z AUTO 31006KT 10SM CLR 21/16 A3014 RMK AO2 =
2015-08-27 20:15 METAR KJYO 280015Z AUTO 31005KT 10SM CLR 22/16 A3013 RMK AO2 =
2015-08-27 19:55 METAR KJYO 272355Z AUTO 02004KT 10SM CLR 23/15 A3012 RMK AO2 =
2015-08-27 19:35 METAR KJYO 272335Z AUTO 01003KT 10SM CLR 23/15 A3011 RMK AO2 =
2015-08-27 19:15 METAR KJYO 272315Z AUTO 01005KT 10SM CLR 24/15 A3011 RMK AO2 =
2015-08-27 18:55 METAR KJYO 272255Z AUTO 36006KT 10SM SCT070 25/15 A3011 RMK AO2 =
2015-08-27 18:35 METAR KJYO 272235Z AUTO 36008KT 310V010 10SM BKN070 25/15 A3011 RMK AO2 =
2015-08-27 18:15 METAR KJYO 272215Z AUTO 31011KT 10SM BKN070 26/13 A3011 RMK AO2 =
2015-08-27 17:55 METAR KJYO 272155Z AUTO 02004KT 10SM OVC070 26/15 A3011 RMK AO2 =
2015-08-27 17:35 METAR KJYO 272135Z AUTO 02006KT 10SM OVC070 25/14 A3011 RMK AO2 =
2015-08-27 17:15 METAR KJYO 272115Z AUTO 32008G14KT 10SM OVC070 26/13 A3011 RMK AO2 =
2015-08-27 16:55 METAR KJYO 272055Z AUTO 34008KT 290V030 10SM OVC070 26/14 A3011 RMK AO2 =
2015-08-27 16:35 METAR KJYO 272035Z AUTO 34008KT 300V360 10SM OVC070 26/13 A3010 RMK AO2 =
2015-08-27 16:15 METAR KJYO 272015Z AUTO 33006KT 290V010 10SM BKN070 26/14 A3010 RMK AO2 =
2015-08-27 15:55 METAR KJYO 271955Z AUTO 32006KT 290V360 10SM SCT070 27/14 A3010 RMK AO2 =
2015-08-27 15:35 METAR KJYO 271935Z AUTO 29006KT 10SM SCT060 26/15 A3011 RMK AO2 =
2015-08-27 15:15 METAR KJYO 271915Z AUTO 31008KT 10SM SCT060 BKN065 26/15 A3011 RMK AO2 =
2015-08-27 14:55 METAR KJYO 271855Z AUTO 30007KT 10SM SCT060 26/15 A3012 RMK AO2 =
2015-08-27 14:35 METAR KJYO 271835Z AUTO 34004KT 10SM SCT048 SCT060 26/14 A3012 RMK AO2 =
2015-08-27 14:15 METAR KJYO 271815Z AUTO 01006KT 10SM SCT048 BKN060 26/14 A3013 RMK AO2 =
2015-08-27 13:55 METAR KJYO 271755Z AUTO 30005KT 10SM SCT048 SCT060 26/15 A3014 RMK AO2 =
2015-08-27 13:35 METAR KJYO 271735Z AUTO 00000KT 10SM BKN050 BKN060 24/14 A3014 RMK AO2 =
2015-08-27 13:15 METAR KJYO 271715Z AUTO 28003KT 10SM SCT055 26/16 A3014 RMK AO2 =

Support USWX by starting your Amazon purchase here.